LSME - Emmen, Switzerland
Distance from HB9FEE: SW 14km
Updated: Wed, 20-Jun-2018 7:50pm CEST
Clear
Clear
 Wind from N
Wind: N 2 km/h
Temperature: 28°C
Heat Index: 28°C
Dew Point: 15°C
Humidity: 45%
Barometer: 1019 hPa
Clouds: Clear
Visibility: 16 miles
2018/06/20 17:50 LSME 201750Z AUTO 35001KT 9999NDV NCD 28/15 Q1019 RMK
LSZC - Buochs, Switzerland
Distance from HB9FEE: S 25km
Updated: Wed, 20-Jun-2018 8:20pm CEST
Clear
Clear
 Wind from W
Wind: W 7 km/h
Temperature: 25°C
Dew Point: 18°C
Humidity: 65%
Barometer: 1019 hPa
Summary: Clear
Visibility: greater than 10 km
2018/06/20 18:20 LSZC 201820Z AUTO 27004KT CAVOK 25/18 Q1019
 
LSMA - Alpnach, Switzerland
Distance from HB9FEE: SSW 29km
Updated: Wed, 20-Jun-2018 7:50pm CEST
Clear
Clear
 Wind from varies
Wind: varies 2 km/h
Temperature: 26°C
Dew Point: 19°C
Humidity: 65%
Barometer: 1019 hPa
Clouds: Clear
Visibility: 16 miles
2018/06/20 17:50 LSMA 201750Z AUTO VRB01KT 9999NDV NCD 26/19 Q1019 RMK
LSMD - Dubendorf, Switzerland
Distance from HB9FEE: NE 29km
Updated: Wed, 20-Jun-2018 7:50pm CEST
Clear
Clear
 Wind from E
Wind: E 7 km/h
Temperature: 29°C
Dew Point: 13°C
Humidity: 37%
Barometer: 1019 hPa
Clouds: Clear
Visibility: 16 miles
2018/06/20 17:50 LSMD 201750Z AUTO 09004KT 050V130 9999NDV NCD 29/13 Q1019 RMK
 
LSZH - Zurich-Kloten (a, Switzerland
Distance from HB9FEE: NNE 33km
Updated: Wed, 20-Jun-2018 8:20pm CEST
Clear
Clear
 Wind from varies
Wind: varies 4 km/h
Temperature: 28°C
Dew Point: 12°C
Humidity: 37%
Barometer: 1019 hPa
Summary: Clear
Visibility: greater than 10 km
2018/06/20 18:20 LSZH 201820Z VRB02KT CAVOK 28/12 Q1019 NOSIG
LSMM - Meiringen, Switzerland
Distance from HB9FEE: SSW 54km
Updated: Wed, 20-Jun-2018 7:50pm CEST
Clear
Clear
 Wind from varies
Wind: varies 4 km/h
Temperature: 27°C
Heat Index: 28°C
Dew Point: 17°C
Humidity: 54%
Barometer: 1019 hPa
Clouds: Clear
Visibility: 16 miles
2018/06/20 17:50 LSMM 201750Z AUTO VRB02KT 9999NDV NCD 27/17 Q1019 RMK
 
LSZB - Bern/Belp, Switzerland
Distance from HB9FEE: WSW 76km
Updated: Wed, 20-Jun-2018 8:20pm CEST
Clear
Clear
 Wind from N
Wind: N 7 km/h
Temperature: 27°C
Heat Index: 27°C
Dew Point: 15°C
Humidity: 48%
Barometer: 1019 hPa
Summary: Clear
Visibility: greater than 10 km
2018/06/20 18:20 LSZB 201820Z 35004KT 320V030 CAVOK 27/15 Q1019 NOSIG
LSZG - Grenchen, Switzerland
Distance from HB9FEE: W 76km
Updated: Wed, 20-Jun-2018 8:20pm CEST
Mostly Cloudy
Mostly Cloudy
 Wind from varies
Wind: varies 2 km/h
Temperature: 28°C
Heat Index: 28°C
Dew Point: 14°C
Humidity: 42%
Barometer: 1019 hPa
Clouds: Mostly Cloudy
Visibility: 10 km
Cloud details: Mostly Cloudy 1829 m
2018/06/20 18:20 LSZG 201820Z AUTO VRB01KT 9999 BKN060 28/14 Q1019
 
LFSB - Bale/Mulhouse, France
Distance from HB9FEE: NW 82km
Updated: Wed, 20-Jun-2018 8:00pm CEST
Few Clouds
Few Clouds
 Wind from NNW
Wind: NNW 7 km/h
Temperature: 30°C
Heat Index: 29°C
Dew Point: 15°C
Humidity: 40%
Barometer: 1018 hPa
Clouds: Few Clouds
Visibility: 10 km
Cloud details: Few Clouds 2012 m
2018/06/20 18:00 LFSB 201800Z 33004KT 9999 FEW066TCU 30/15 Q1018 NOSIG
LSZR - Rheineck/Altenrh, Switzerland
Distance from HB9FEE: ENE 92km
Updated: Wed, 20-Jun-2018 8:20pm CEST
Clear
Clear
 Wind from W
Wind: W 7 km/h
Temperature: 27°C
Heat Index: 28°C
Dew Point: 16°C
Humidity: 51%
Barometer: 1018 hPa
Summary: Clear
Visibility: greater than 10 km
2018/06/20 18:20 LSZR 201820Z 27004KT CAVOK 27/16 Q1018 NOSIG RMK O
 
LSZL - Locarno, Switzerland
Distance from HB9FEE: SSE 119km
Updated: Wed, 20-Jun-2018 7:50pm CEST
Few Clouds
Few Clouds
 Wind from varies
Wind: varies 4 km/h
Temperature: 27°C
Heat Index: 29°C
Dew Point: 20°C
Humidity: 66%
Barometer: 1018 hPa
Clouds: Few Clouds
Visibility: 16 miles
Cloud details: Few Clouds 2408 m
2018/06/20 17:50 LSZL 201750Z AUTO VRB02KT 9999NDV FEW079 27/20 Q1018 RMK
LSMP - Payerne (mil/Aut, Switzerland
Distance from HB9FEE: WSW 121km
Updated: Wed, 20-Jun-2018 7:50pm CEST
Few Clouds
Few Clouds
 Wind from NNW
Wind: NNW 6 km/h
Temperature: 27°C
Heat Index: 28°C
Dew Point: 18°C
Humidity: 58%
Barometer: 1019 hPa
Clouds: Few Clouds
Visibility: 16 miles
Cloud details: Few Clouds 2042 m
2018/06/20 17:50 LSMP 201750Z AUTO 34003KT 9999NDV FEW067 27/18 Q1019 RMK
 
LSGC - Les Eplatures, Switzerland
Distance from HB9FEE: W 123km
Updated: Wed, 20-Jun-2018 8:20pm CEST
Clear
Clear
 Wind from varies
Wind: varies 6 km/h
Temperature: 21°C
Dew Point: 15°C
Humidity: 69%
Barometer: 1023 hPa
Clouds: Clear
Visibility: 10 km
2018/06/20 18:20 LSGC 201820Z AUTO VRB03KT 9999 NCD 21/15 Q1023
LSZS - Samedan, Switzerland
Distance from HB9FEE: ESE 133km
Updated: Wed, 20-Jun-2018 8:20pm CEST
Light rain, Mostly cloudy
Light rain, Mostly cloudy
 Wind from S
Wind: S 11 km/h
Temperature: 15°C
Dew Point: 13°C
Humidity: 88%
Barometer: 1026 hPa
Summary: Light Rain
Clouds: Mostly Cloudy
Visibility: 10 km
Cloud details: Mostly Cloudy 1829 m
Mostly Cloudy 2438 m
2018/06/20 18:20 LSZS 201820Z AUTO 18006KT 9999 -RA BKN060CB BKN080 15/13 Q1026
 
LSGS - Sion (mil/Civ/Au, Switzerland
Distance from HB9FEE: SW 137km
Updated: Wed, 20-Jun-2018 8:20pm CEST
Clear
Clear
 Wind from W
Wind: W 13 km/h
Temperature: 29°C
Heat Index: 29°C
Dew Point: 15°C
Humidity: 43%
Barometer: 1018 hPa
Summary: Clear
Visibility: greater than 10 km
2018/06/20 18:20 LSGS 201820Z AUTO 28007KT CAVOK 29/15 Q1018
LSZA - Lugano (pvt/Aut), Switzerland
Distance from HB9FEE: SSE 138km
Updated: Wed, 20-Jun-2018 8:20pm CEST
Few Clouds
Few Clouds
 Wind from varies
Wind: varies 4 km/h
Temperature: 27°C
Heat Index: 28°C
Dew Point: 18°C
Humidity: 58%
Barometer: 1018 hPa
Clouds: Few Clouds
Visibility: 10 km
Cloud details: Few Clouds 1829 m
2018/06/20 18:20 LSZA 201820Z VRB02KT 9999 FEW060 27/18 Q1018 NOSIG